createdAt,value
2023-03-22T00:22:42.304Z,8.77
2023-03-22T00:27:34.013Z,7.60
2023-03-22T00:32:25.912Z,7.83
2023-03-22T00:37:21.861Z,7.87
2023-03-22T00:42:13.589Z,13.13
2023-03-22T00:47:05.339Z,9.40
2023-03-22T00:51:57.118Z,12.63
2023-03-22T00:56:49.783Z,14.10
2023-03-22T01:01:41.752Z,11.13
2023-03-22T01:06:34.697Z,9.73
2023-03-22T01:11:27.308Z,8.80
2023-03-22T01:16:19.018Z,12.60
2023-03-22T01:21:11.188Z,10.80
2023-03-22T01:26:03.653Z,12.07
2023-03-22T01:30:56.316Z,9.50
2023-03-22T01:35:48.402Z,11.70
2023-03-22T01:40:40.746Z,9.10
2023-03-22T01:45:49.883Z,8.53
2023-03-22T01:50:50.750Z,9.10
2023-03-22T01:55:42.784Z,9.50
2023-03-22T02:00:34.599Z,8.77
2023-03-22T02:05:27.458Z,8.97
2023-03-22T02:10:24.606Z,10.87
2023-03-22T02:15:34.054Z,12.37
2023-03-22T02:20:53.458Z,12.03
2023-03-22T02:26:49.812Z,16.10
2023-03-22T02:32:18.961Z,13.13
2023-03-22T02:37:42.380Z,11.70
2023-03-22T02:42:56.368Z,15.23
2023-03-22T02:48:14.454Z,14.33
2023-03-22T02:53:38.154Z,16.73
2023-03-22T02:58:39.600Z,18.23
2023-03-22T03:03:37.507Z,16.33
2023-03-22T03:08:30.578Z,18.87
2023-03-22T03:13:22.817Z,18.07
2023-03-22T03:18:58.825Z,19.97
2023-03-22T03:24:06.865Z,19.93
2023-03-22T03:29:20.368Z,17.53
2023-03-22T03:34:35.994Z,19.23
2023-03-22T03:39:34.670Z,18.53
2023-03-22T03:44:28.565Z,17.97
2023-03-22T03:49:23.015Z,16.13
2023-03-22T03:54:14.721Z,15.43
2023-03-22T03:59:08.166Z,17.77
2023-03-22T04:03:59.877Z,17.20
2023-03-22T04:08:53.587Z,15.53
2023-03-22T04:13:45.504Z,14.30
2023-03-22T04:18:38.037Z,13.33
2023-03-22T04:23:29.748Z,14.23
2023-03-22T04:28:21.457Z,10.97
2023-03-22T04:33:13.136Z,9.77
2023-03-22T04:38:04.888Z,13.07
2023-03-22T04:42:57.513Z,10.63
2023-03-22T04:47:49.734Z,9.93
2023-03-22T05:02:58.152Z,8.30
2023-03-22T05:07:49.929Z,8.47
2023-03-22T05:12:41.591Z,8.93
2023-03-22T05:17:33.932Z,8.17
2023-03-22T05:22:25.600Z,8.83
2023-03-22T05:27:17.332Z,8.40
2023-03-22T05:32:09.799Z,8.27
2023-03-22T05:37:02.395Z,7.20
2023-03-22T05:41:54.114Z,7.23
2023-03-22T05:46:45.858Z,10.23
2023-03-22T05:51:41.442Z,19.17
2023-03-22T05:56:33.519Z,29.00
2023-03-22T06:01:25.363Z,8.50
2023-03-22T06:06:17.178Z,7.30
2023-03-22T06:11:09.389Z,6.53
2023-03-22T06:16:03.527Z,12.87
2023-03-22T06:20:55.271Z,12.77
2023-03-22T06:25:48.905Z,12.93
2023-03-22T06:30:41.471Z,16.47
2023-03-22T06:35:35.103Z,21.98
2023-03-22T06:40:27.375Z,19.37
2023-03-22T06:45:19.500Z,11.33
2023-03-22T06:50:11.938Z,9.03
2023-03-22T06:55:04.057Z,12.80
2023-03-22T06:59:55.811Z,9.73
2023-03-22T07:04:47.512Z,12.43
2023-03-22T07:09:41.506Z,8.83
2023-03-22T07:14:36.014Z,10.50
2023-03-22T07:19:27.904Z,8.93
2023-03-22T07:24:19.602Z,10.50
2023-03-22T07:29:11.298Z,9.67
2023-03-22T07:34:04.819Z,9.95
2023-03-22T07:38:58.544Z,8.13
2023-03-22T07:43:58.206Z,8.50
2023-03-22T07:48:51.884Z,8.40
2023-03-22T07:53:43.564Z,9.27
2023-03-22T07:58:42.890Z,8.30
2023-03-22T08:03:36.487Z,4.33
2023-03-22T08:08:28.166Z,5.13
2023-03-22T08:13:19.880Z,6.35
2023-03-22T08:18:11.648Z,6.05
2023-03-22T08:23:04.236Z,5.15
2023-03-22T08:33:02.392Z,5.15
2023-03-22T08:37:57.006Z,4.38
2023-03-22T08:42:54.307Z,7.28
2023-03-22T08:47:48.293Z,4.32
2023-03-22T08:52:40.268Z,5.78
2023-03-22T08:57:32.706Z,6.43
2023-03-22T09:02:25.467Z,4.28
2023-03-22T09:07:28.061Z,5.05
2023-03-22T09:12:20.310Z,7.50
2023-03-22T09:17:12.353Z,6.65
2023-03-22T09:22:04.092Z,6.80
2023-03-22T09:26:57.745Z,4.18
2023-03-22T09:31:49.543Z,6.15
2023-03-22T09:36:41.259Z,3.92
2023-03-22T09:41:50.842Z,5.43
2023-03-22T09:46:51.313Z,6.43
2023-03-22T09:57:12.580Z,7.78
2023-03-22T10:20:00.540Z,9.23
2023-03-22T11:06:32.968Z,5.75
2023-03-22T11:11:44.638Z,5.70
2023-03-22T11:17:09.835Z,4.07
2023-03-22T11:38:41.414Z,4.28
2023-03-22T11:43:52.694Z,3.33
2023-03-22T11:54:23.065Z,2.15
2023-03-22T12:04:40.163Z,2.03
2023-03-22T12:15:05.600Z,2.30
2023-03-22T12:20:25.668Z,1.83
2023-03-22T13:03:16.569Z,1.10
2023-03-22T13:08:08.934Z,1.63
2023-03-22T13:23:57.337Z,4.32
2023-03-22T13:29:12.809Z,2.03
2023-03-22T13:34:14.476Z,1.15
2023-03-22T13:39:14.211Z,1.92
2023-03-22T13:49:56.372Z,3.00
2023-03-22T13:54:52.602Z,3.10
2023-03-22T14:00:20.554Z,1.60
2023-03-22T14:05:23.476Z,1.40
2023-03-22T14:10:39.794Z,0.80
2023-03-22T14:15:38.652Z,1.85
